createdAt,value
2017-01-12T00:00:35.901Z,700.4
2017-01-12T00:01:35.909Z,701.65
2017-01-12T00:02:35.917Z,702.76
2017-01-12T00:03:36.021Z,703.3
2017-01-12T00:04:35.977Z,703.99
2017-01-12T00:05:35.898Z,705.38
2017-01-12T00:06:35.919Z,705.96
2017-01-12T00:07:35.924Z,706.63
2017-01-12T00:08:35.898Z,707.05
2017-01-12T00:09:35.918Z,708.1
2017-01-12T00:10:35.913Z,708.39
2017-01-12T00:11:35.937Z,709.66
2017-01-12T00:12:35.912Z,709.88
2017-01-12T00:13:35.921Z,711.04
2017-01-12T00:14:35.908Z,710.78
2017-01-12T00:15:35.928Z,712.03
2017-01-12T00:16:35.949Z,712.57
2017-01-12T00:17:35.906Z,712.68
2017-01-12T00:18:35.910Z,713.03
2017-01-12T00:19:35.962Z,713.41
2017-01-12T00:20:36.576Z,713.18
2017-01-12T00:21:35.943Z,713.26
2017-01-12T00:22:35.910Z,712.39
2017-01-12T00:23:35.891Z,711.35
2017-01-12T00:24:35.912Z,710.56
2017-01-12T00:25:35.912Z,710.46
2017-01-12T00:26:35.944Z,710.44
2017-01-12T00:27:35.922Z,709.77
2017-01-12T00:28:35.900Z,710.12
2017-01-12T00:29:35.914Z,709.94
2017-01-12T00:30:35.913Z,709.73
2017-01-12T00:31:35.975Z,709.92
2017-01-12T00:32:35.941Z,710.1
2017-01-12T00:33:35.927Z,711.33
2017-01-12T00:34:35.937Z,712.24
2017-01-12T00:35:35.916Z,713.19
2017-01-12T00:36:35.948Z,713.71
2017-01-12T00:37:35.910Z,713.85
2017-01-12T00:38:35.903Z,715.03
2017-01-12T00:39:35.994Z,715.51
2017-01-12T00:40:35.925Z,715.87
2017-01-12T00:41:35.976Z,717.46
2017-01-12T00:42:35.907Z,717.41
2017-01-12T00:43:35.912Z,717.15
2017-01-12T00:44:35.935Z,716.86
2017-01-12T00:45:35.922Z,716.99
2017-01-12T00:46:35.934Z,715.79
2017-01-12T00:47:35.960Z,715.47
2017-01-12T00:48:35.915Z,715.77
2017-01-12T00:49:35.921Z,715.37
2017-01-12T00:50:35.916Z,714.97
2017-01-12T00:51:36.641Z,715.54
2017-01-12T00:52:35.943Z,715.72
2017-01-12T00:53:35.911Z,715.89
2017-01-12T00:54:35.923Z,716.28
2017-01-12T00:55:35.924Z,716.59
2017-01-12T00:56:35.943Z,715.24
2017-01-12T00:57:35.922Z,713.79
2017-01-12T00:58:35.923Z,711.48
2017-01-12T00:59:35.936Z,709.3
2017-01-12T01:00:35.935Z,706.28
2017-01-12T01:01:35.948Z,702.3
2017-01-12T01:02:35.931Z,698.79
2017-01-12T01:03:35.929Z,694.88
2017-01-12T01:04:35.935Z,692.33
2017-01-12T01:05:35.936Z,690.7
2017-01-12T01:06:35.977Z,687.57
2017-01-12T01:07:35.940Z,686.22
2017-01-12T01:08:35.994Z,684.65
2017-01-12T01:09:35.946Z,683.47
2017-01-12T01:10:35.962Z,681.82
2017-01-12T01:11:35.967Z,679.78
2017-01-12T01:12:35.937Z,678.01
2017-01-12T01:13:35.988Z,676.09
2017-01-12T01:14:35.937Z,674.04
2017-01-12T01:15:35.956Z,672.71
2017-01-12T01:16:35.977Z,671.58
2017-01-12T01:17:35.956Z,670.5
2017-01-12T01:18:36.083Z,669.89
2017-01-12T01:19:35.944Z,668.82
2017-01-12T01:20:35.935Z,666.39
2017-01-12T01:21:35.971Z,663.44
2017-01-12T01:22:35.951Z,662.1
2017-01-12T01:23:35.937Z,659.38
2017-01-12T01:24:35.986Z,657.86
2017-01-12T01:25:35.947Z,655.45
2017-01-12T01:26:35.959Z,654.08
2017-01-12T01:27:35.936Z,652.83
2017-01-12T01:28:35.951Z,651.11
2017-01-12T01:29:35.947Z,650.19
2017-01-12T01:30:35.953Z,650.22
2017-01-12T01:31:35.972Z,650.73
2017-01-12T01:32:35.956Z,651.73
2017-01-12T01:33:35.947Z,652.53
2017-01-12T01:34:35.979Z,653.99
2017-01-12T01:35:35.949Z,655.24
2017-01-12T01:36:35.967Z,657.41
2017-01-12T01:37:35.954Z,659.39
2017-01-12T01:38:35.954Z,660.83
2017-01-12T01:39:35.969Z,662.08
2017-01-12T01:40:35.963Z,664.17
2017-01-12T01:41:35.999Z,666.15
2017-01-12T01:42:35.952Z,667.72
2017-01-12T01:43:35.960Z,669.29
2017-01-12T01:44:35.961Z,670.61
2017-01-12T01:45:35.987Z,671.71
2017-01-12T01:46:35.990Z,672.81
2017-01-12T01:47:35.966Z,674.34
2017-01-12T01:48:35.979Z,675.55
2017-01-12T01:49:35.984Z,676.77
2017-01-12T01:50:35.962Z,678.29
2017-01-12T01:51:35.979Z,679.06
2017-01-12T01:52:35.960Z,679.42
2017-01-12T01:53:35.967Z,679.4
2017-01-12T01:54:35.960Z,679.81
2017-01-12T01:55:35.969Z,680.17
2017-01-12T01:56:35.990Z,679.99
2017-01-12T01:57:36.009Z,680.12
2017-01-12T01:58:35.977Z,680.86
2017-01-12T01:59:35.968Z,681
2017-01-12T02:00:35.985Z,681.52
2017-01-12T02:01:36.211Z,682.48
2017-01-12T02:02:35.976Z,682.8
2017-01-12T02:03:35.970Z,683.04
2017-01-12T02:04:35.976Z,683.92
2017-01-12T02:05:35.983Z,685.02
2017-01-12T02:06:36.055Z,685.29
2017-01-12T02:07:35.986Z,685.68
2017-01-12T02:08:35.985Z,685.38
2017-01-12T02:09:36.055Z,684.47
2017-01-12T02:10:35.988Z,683.61
2017-01-12T02:11:36.072Z,682.27
2017-01-12T02:12:35.977Z,681.06
2017-01-12T02:13:35.981Z,679.74
2017-01-12T02:14:35.990Z,679.45
2017-01-12T02:15:36.002Z,678.49
2017-01-12T02:16:36.014Z,676.9
2017-01-12T02:17:35.985Z,675.4
2017-01-12T02:18:35.989Z,673.5
2017-01-12T02:19:36.026Z,672.32
2017-01-12T02:20:35.986Z,669.75
2017-01-12T02:21:36.008Z,667.09
2017-01-12T02:22:35.985Z,664.59
2017-01-12T02:23:35.988Z,662.7
2017-01-12T02:24:36.020Z,661.46
2017-01-12T02:25:35.996Z,659.51
2017-01-12T02:26:36.006Z,658.12
2017-01-12T02:27:35.991Z,656.89
2017-01-12T02:28:36.024Z,655.1
2017-01-12T02:29:35.999Z,653.16
2017-01-12T02:30:35.996Z,652.11
2017-01-12T02:31:36.001Z,650.84
2017-01-12T02:32:36.001Z,648.53
2017-01-12T02:33:35.982Z,646.25
2017-01-12T02:34:35.991Z,644.16
2017-01-12T02:35:35.998Z,641.82
2017-01-12T02:36:36.006Z,638.53
2017-01-12T02:37:36.000Z,637.14
2017-01-12T02:38:35.993Z,635.58
2017-01-12T02:39:36.011Z,634.06
2017-01-12T02:40:35.994Z,632.94
2017-01-12T02:41:36.025Z,631.88
2017-01-12T02:42:36.018Z,631.71
2017-01-12T02:43:36.004Z,630.8
2017-01-12T02:44:36.018Z,629.65
2017-01-12T02:45:36.058Z,628.74
2017-01-12T02:46:36.320Z,627.67
2017-01-12T02:47:36.009Z,627.13
2017-01-12T02:48:36.004Z,626.25
2017-01-12T02:49:36.007Z,624.91
2017-01-12T02:50:36.004Z,623.63
2017-01-12T02:51:36.041Z,623.26
2017-01-12T02:52:36.032Z,622.58
2017-01-12T02:53:36.021Z,622.6
2017-01-12T02:54:36.028Z,622.47
2017-01-12T02:55:36.113Z,622.44
2017-01-12T02:56:36.033Z,622.1
2017-01-12T02:57:36.055Z,622.71
2017-01-12T02:58:36.020Z,623.13
2017-01-12T02:59:36.022Z,623.82
2017-01-12T03:00:36.040Z,626.45
2017-01-12T03:01:36.112Z,627.75
2017-01-12T03:02:36.017Z,629.93
2017-01-12T03:03:36.004Z,631.65
2017-01-12T03:04:36.011Z,632.51
2017-01-12T03:05:36.057Z,633.39
2017-01-12T03:06:36.068Z,634.96
2017-01-12T03:07:36.089Z,636.01
2017-01-12T03:08:36.027Z,636.82
2017-01-12T03:09:36.241Z,636.56
2017-01-12T03:10:36.045Z,636.92
2017-01-12T03:11:36.047Z,638.37
2017-01-12T03:12:36.028Z,638.5
2017-01-12T03:13:36.771Z,638.88
2017-01-12T03:14:36.037Z,638.69
2017-01-12T03:15:36.083Z,639.63
2017-01-12T03:16:36.090Z,638.5
2017-01-12T03:17:36.026Z,637.7
2017-01-12T03:18:36.024Z,636.87
2017-01-12T03:19:36.078Z,635.57
2017-01-12T03:20:36.081Z,633.92
2017-01-12T03:21:36.545Z,632.53
2017-01-12T03:22:36.231Z,630.35
2017-01-12T03:23:36.035Z,628.37
2017-01-12T03:24:36.044Z,626.28
2017-01-12T03:25:36.035Z,624.08
2017-01-12T03:26:36.185Z,621.93
2017-01-12T03:27:36.035Z,620.16
2017-01-12T03:28:36.052Z,617.77
2017-01-12T03:29:36.064Z,616.73
2017-01-12T03:30:36.051Z,615.02
2017-01-12T03:31:36.063Z,614.55
2017-01-12T03:32:36.057Z,614.21
2017-01-12T03:33:36.048Z,614.01
2017-01-12T03:34:36.054Z,615.27
2017-01-12T03:35:36.171Z,615.82
2017-01-12T03:36:36.077Z,617.69
2017-01-12T03:37:36.117Z,618.89
2017-01-12T03:38:36.126Z,619.45
2017-01-12T03:39:36.058Z,622.14
2017-01-12T03:40:36.045Z,623.69
2017-01-12T03:41:36.056Z,625.48
2017-01-12T03:42:36.255Z,626.42
2017-01-12T03:43:36.051Z,628.68
2017-01-12T03:44:36.104Z,629.45
2017-01-12T03:45:36.383Z,630.32
2017-01-12T03:46:36.113Z,630.59
2017-01-12T03:47:36.194Z,632.43
2017-01-12T03:48:36.083Z,632.61
2017-01-12T03:49:36.064Z,633.42
2017-01-12T03:50:36.071Z,634.48
2017-01-12T03:51:36.074Z,635.97
2017-01-12T03:52:36.074Z,636.12
2017-01-12T03:53:36.068Z,636.69
2017-01-12T03:54:36.060Z,636.52
2017-01-12T03:55:36.088Z,637.21
2017-01-12T03:56:36.260Z,637.19
2017-01-12T03:57:36.227Z,636.92
2017-01-12T03:58:36.080Z,637.47
2017-01-12T03:59:36.056Z,637.62
2017-01-12T04:00:36.069Z,637.73
2017-01-12T04:01:36.091Z,637.97
2017-01-12T04:02:36.075Z,639.02
2017-01-12T04:03:36.075Z,639.95
2017-01-12T04:04:36.072Z,641.01
2017-01-12T04:05:36.075Z,642.2
2017-01-12T04:06:36.090Z,642.65
2017-01-12T04:07:36.067Z,643.87
2017-01-12T04:08:36.059Z,644.36
2017-01-12T04:09:36.085Z,645.36
2017-01-12T04:10:36.072Z,646.11
2017-01-12T04:11:36.095Z,646.81
2017-01-12T04:12:36.058Z,647.6
2017-01-12T04:13:36.159Z,648.73
2017-01-12T04:14:36.087Z,649.72
2017-01-12T04:15:36.076Z,650.54
2017-01-12T04:16:36.098Z,651.83
2017-01-12T04:17:36.065Z,652.61
2017-01-12T04:18:36.093Z,653.94
2017-01-12T04:19:36.076Z,654.1
2017-01-12T04:20:36.070Z,654.52
2017-01-12T04:21:36.139Z,655.07
2017-01-12T04:22:36.083Z,654.09
2017-01-12T04:23:36.089Z,654.45
2017-01-12T04:24:36.093Z,653.36
2017-01-12T04:25:36.093Z,654.67
2017-01-12T04:26:36.115Z,654.63
2017-01-12T04:27:36.085Z,654.56
2017-01-12T04:28:36.100Z,654.02
2017-01-12T04:29:36.075Z,653.85
2017-01-12T04:30:36.093Z,653.34
2017-01-12T04:31:36.104Z,652.36
2017-01-12T04:32:36.096Z,651.79
2017-01-12T04:33:36.089Z,651.57
2017-01-12T04:34:36.090Z,651.01
2017-01-12T04:35:36.097Z,649.97
2017-01-12T04:36:36.105Z,650.49
2017-01-12T04:37:36.114Z,650.04
2017-01-12T04:38:36.097Z,649.81
2017-01-12T04:39:36.097Z,649.77
2017-01-12T04:40:36.122Z,649.65
2017-01-12T04:41:36.120Z,649.48
2017-01-12T04:42:36.085Z,649.62
2017-01-12T04:43:36.097Z,649.23
2017-01-12T04:44:36.102Z,649.44
2017-01-12T04:45:36.106Z,649.75
2017-01-12T04:46:36.115Z,650.22
2017-01-12T04:47:36.096Z,651.06
2017-01-12T04:48:36.103Z,651.09
2017-01-12T04:49:36.090Z,651.57
2017-01-12T04:50:36.098Z,652.11
2017-01-12T04:51:36.119Z,652.62
2017-01-12T04:52:36.113Z,652.34
2017-01-12T04:53:36.106Z,653.54
2017-01-12T04:54:36.112Z,653.06
2017-01-12T04:55:36.102Z,653.42
2017-01-12T04:56:36.125Z,653.83
2017-01-12T04:57:36.116Z,654.13
2017-01-12T04:58:36.107Z,653.37
2017-01-12T04:59:36.102Z,653.62
2017-01-12T05:00:36.107Z,653.93
2017-01-12T05:01:36.128Z,653.18
2017-01-12T05:02:36.112Z,653.37
2017-01-12T05:03:36.098Z,653.06
2017-01-12T05:04:36.134Z,652.9
2017-01-12T05:05:36.112Z,652.49
2017-01-12T05:06:36.133Z,653.14
2017-01-12T05:07:36.129Z,652.52
2017-01-12T05:08:36.107Z,653.27
2017-01-12T05:09:36.128Z,653.7
2017-01-12T05:10:36.124Z,654.36
2017-01-12T05:11:36.127Z,654.34
2017-01-12T05:12:36.147Z,654.95
2017-01-12T05:13:36.124Z,655.74
2017-01-12T05:14:36.115Z,656.08
2017-01-12T05:15:36.128Z,656.92
2017-01-12T05:16:36.135Z,657.85
2017-01-12T05:17:36.128Z,658.51
2017-01-12T05:18:36.177Z,659.46
2017-01-12T05:19:36.127Z,660.33
2017-01-12T05:20:36.135Z,660.81
2017-01-12T05:21:36.144Z,661.09
2017-01-12T05:22:36.134Z,662.44
2017-01-12T05:23:36.112Z,662.85
2017-01-12T05:24:36.118Z,663
2017-01-12T05:25:36.119Z,664.33
2017-01-12T05:26:36.162Z,664.74
2017-01-12T05:27:36.135Z,665.58
2017-01-12T05:28:36.138Z,667.16
2017-01-12T05:29:36.130Z,666.87
2017-01-12T05:30:36.143Z,668.89
2017-01-12T05:31:36.149Z,668.85
2017-01-12T05:32:36.162Z,669.15
2017-01-12T05:33:36.138Z,669.51
2017-01-12T05:34:36.155Z,669.87
2017-01-12T05:35:36.142Z,669.65
2017-01-12T05:36:36.185Z,669.59
2017-01-12T05:37:36.158Z,670.26
2017-01-12T05:38:36.163Z,668.99
2017-01-12T05:39:36.139Z,669.19
2017-01-12T05:40:36.128Z,668.72
2017-01-12T05:41:36.160Z,667.18
2017-01-12T05:42:36.123Z,666.33
2017-01-12T05:43:36.162Z,664.47
2017-01-12T05:44:36.141Z,663.33
2017-01-12T05:45:36.144Z,661.46
2017-01-12T05:46:36.170Z,659.51
2017-01-12T05:47:36.141Z,657.37
2017-01-12T05:48:36.152Z,654.33
2017-01-12T05:49:36.144Z,653.23
2017-01-12T05:50:36.141Z,652.46
2017-01-12T05:51:36.143Z,652.05
2017-01-12T05:52:36.145Z,652.06
2017-01-12T05:53:36.136Z,651.73
2017-01-12T05:54:36.155Z,652.03
2017-01-12T05:55:36.150Z,652.73
2017-01-12T05:56:36.156Z,652.71
2017-01-12T05:57:36.149Z,653.25
2017-01-12T05:58:36.154Z,653.63
2017-01-12T05:59:36.151Z,653.96
2017-01-12T06:00:36.149Z,654.52
2017-01-12T06:01:36.168Z,655.37
2017-01-12T06:02:36.160Z,656.57
2017-01-12T06:03:36.144Z,656.71
2017-01-12T06:04:36.144Z,657.46
2017-01-12T06:05:36.148Z,657.62
2017-01-12T06:06:36.171Z,658.21
2017-01-12T06:07:36.148Z,658.53
2017-01-12T06:08:36.143Z,658.31
2017-01-12T06:09:36.157Z,659.29
2017-01-12T06:10:36.156Z,659.14
2017-01-12T06:11:36.163Z,658.92
2017-01-12T06:12:36.179Z,658.6
2017-01-12T06:13:36.168Z,657.52
2017-01-12T06:14:36.183Z,657.9
2017-01-12T06:15:36.161Z,658.03
2017-01-12T06:16:36.188Z,657.23
2017-01-12T06:17:36.154Z,657.67
2017-01-12T06:18:36.163Z,658.59
2017-01-12T06:19:36.169Z,659.06
2017-01-12T06:20:36.166Z,658.72
2017-01-12T06:21:36.182Z,657.53
2017-01-12T06:22:36.175Z,657.63
2017-01-12T06:23:36.166Z,656.98
2017-01-12T06:24:36.166Z,658.06
2017-01-12T06:25:36.154Z,658.14
2017-01-12T06:26:36.191Z,657.95
2017-01-12T06:27:36.174Z,658.6
2017-01-12T06:28:36.182Z,658.2
2017-01-12T06:29:36.171Z,658.56
2017-01-12T06:30:36.174Z,659.09
2017-01-12T06:31:36.195Z,659.81
2017-01-12T06:32:36.178Z,660.48
2017-01-12T06:33:36.176Z,660.83
2017-01-12T06:34:36.183Z,661.47
2017-01-12T06:35:36.178Z,661.62
2017-01-12T06:36:36.190Z,661.93
2017-01-12T06:37:36.184Z,662.16
2017-01-12T06:38:36.177Z,662.09
2017-01-12T06:39:36.187Z,662.9
2017-01-12T06:40:36.179Z,663.36
2017-01-12T06:41:36.195Z,663.95
2017-01-12T06:42:36.183Z,663.43
2017-01-12T06:43:36.179Z,664.87
2017-01-12T06:44:36.171Z,664.09
2017-01-12T06:45:36.176Z,665.21
2017-01-12T06:46:36.209Z,665.04
2017-01-12T06:47:36.185Z,665.31
2017-01-12T06:48:36.197Z,664.13
2017-01-12T06:49:36.203Z,664.16
2017-01-12T06:50:36.194Z,663.52
2017-01-12T06:51:36.205Z,663.09
2017-01-12T06:52:36.193Z,662.33
2017-01-12T06:53:36.202Z,662.02
2017-01-12T06:54:36.193Z,661.91
2017-01-12T06:55:36.184Z,661.5
2017-01-12T06:56:36.208Z,661.2
2017-01-12T06:57:36.184Z,661.37
2017-01-12T06:58:36.190Z,660.32
2017-01-12T06:59:36.205Z,660.1
2017-01-12T07:00:36.173Z,659.24
2017-01-12T07:01:36.208Z,659.07
2017-01-12T07:02:36.185Z,658.76
2017-01-12T07:03:36.203Z,658.42
2017-01-12T07:04:36.953Z,658.13
2017-01-12T07:05:36.196Z,656.72
2017-01-12T07:06:36.223Z,655.99
2017-01-12T07:07:36.210Z,654.32
2017-01-12T07:08:36.202Z,654.15
2017-01-12T07:09:36.200Z,653.63
2017-01-12T07:10:36.191Z,652.08
2017-01-12T07:11:36.236Z,650.58
2017-01-12T07:12:36.931Z,648.25
2017-01-12T07:13:36.205Z,646.26
2017-01-12T07:14:36.237Z,643.6
2017-01-12T07:15:36.218Z,641.09
2017-01-12T07:16:36.241Z,638.45
2017-01-12T07:17:36.191Z,635.95
2017-01-12T07:18:36.926Z,633.59
2017-01-12T07:19:36.188Z,630.33
2017-01-12T07:20:36.223Z,627.65
2017-01-12T07:21:36.214Z,624.87
2017-01-12T07:22:36.223Z,622.19
2017-01-12T07:23:36.229Z,620.19
2017-01-12T07:24:36.249Z,617.8
2017-01-12T07:25:36.212Z,615.52
2017-01-12T07:26:36.230Z,613.92
2017-01-12T07:27:36.873Z,611.86
2017-01-12T07:28:36.204Z,609.05
2017-01-12T07:29:36.210Z,607.8
2017-01-12T07:30:36.201Z,605.21
2017-01-12T07:31:36.223Z,603.21
2017-01-12T07:32:36.247Z,601.17
2017-01-12T07:33:36.224Z,599.86
2017-01-12T07:34:36.201Z,599.09
2017-01-12T07:35:36.211Z,598.2
2017-01-12T07:36:36.256Z,598.24
2017-01-12T07:37:36.216Z,598.1
2017-01-12T07:38:36.214Z,599.24
2017-01-12T07:39:36.224Z,600.72
2017-01-12T07:40:36.216Z,601.68
2017-01-12T07:41:36.246Z,604.23
2017-01-12T07:42:36.216Z,605.75
2017-01-12T07:43:36.267Z,607.95
2017-01-12T07:44:36.225Z,609.12
2017-01-12T07:45:36.227Z,610.88
2017-01-12T07:46:36.226Z,612.61
2017-01-12T07:47:36.230Z,613.53
2017-01-12T07:48:36.218Z,615.16
2017-01-12T07:49:36.216Z,615.65
2017-01-12T07:50:36.207Z,616.9
2017-01-12T07:51:36.245Z,617.3
2017-01-12T07:52:36.221Z,616.57
2017-01-12T07:53:36.225Z,615.84
2017-01-12T07:54:36.221Z,615.39
2017-01-12T07:55:36.228Z,615.99
2017-01-12T07:56:36.260Z,615.22
2017-01-12T07:57:36.230Z,614.63
2017-01-12T07:58:36.237Z,614.49
2017-01-12T07:59:36.979Z,614.64
2017-01-12T08:00:36.244Z,614.83
2017-01-12T08:01:36.240Z,615.3
2017-01-12T08:02:36.232Z,616.22
2017-01-12T08:03:36.240Z,617.2
2017-01-12T08:04:36.247Z,617.33
2017-01-12T08:05:36.230Z,618.19
2017-01-12T08:06:37.247Z,619.1
2017-01-12T08:07:36.269Z,619.55
2017-01-12T08:08:36.251Z,620.84
2017-01-12T08:09:36.233Z,621.03
2017-01-12T08:10:36.277Z,621.59
2017-01-12T08:11:36.242Z,621.99
2017-01-12T08:12:36.244Z,623.52
2017-01-12T08:13:36.255Z,624.34
2017-01-12T08:14:36.256Z,626.39
2017-01-12T08:15:36.252Z,628.91
2017-01-12T08:16:36.401Z,631.22
2017-01-12T08:17:36.255Z,632.94
2017-01-12T08:18:37.938Z,635.26
2017-01-12T08:19:36.245Z,637.39
2017-01-12T08:20:36.255Z,640.33
2017-01-12T08:21:36.246Z,643.16
2017-01-12T08:22:36.241Z,646.55
2017-01-12T08:23:36.241Z,649.07
2017-01-12T08:24:36.253Z,651.82
2017-01-12T08:25:36.252Z,654.94
2017-01-12T08:26:36.250Z,657.91
2017-01-12T08:27:36.246Z,660.97
2017-01-12T08:28:36.775Z,664.49
2017-01-12T08:29:36.278Z,667.36
2017-01-12T08:30:36.818Z,669.68
2017-01-12T08:31:36.263Z,672.82
2017-01-12T08:32:36.261Z,675.21
2017-01-12T08:33:36.270Z,677.95
2017-01-12T08:34:36.254Z,680.42
2017-01-12T08:35:36.262Z,681.66
2017-01-12T08:36:36.259Z,682.57
2017-01-12T08:37:36.266Z,682.7
2017-01-12T08:38:36.261Z,683.03
2017-01-12T08:39:36.267Z,683.89
2017-01-12T08:40:36.261Z,684.87
2017-01-12T08:41:36.263Z,685.88
2017-01-12T08:42:36.276Z,686.36
2017-01-12T08:43:36.263Z,686.17
2017-01-12T08:44:36.261Z,686.52
2017-01-12T08:45:36.262Z,686.03
2017-01-12T08:46:36.272Z,686.67
2017-01-12T08:47:36.263Z,686.33
2017-01-12T08:48:36.271Z,686.8
2017-01-12T08:49:36.270Z,687.6
2017-01-12T08:50:36.268Z,689.49
2017-01-12T08:51:36.267Z,692.03
2017-01-12T08:52:36.278Z,695.12
2017-01-12T08:53:36.278Z,698.53
2017-01-12T08:54:36.271Z,702.24
2017-01-12T08:55:36.278Z,703.45
2017-01-12T08:56:36.277Z,704.65
2017-01-12T08:57:36.281Z,705.35
2017-01-12T08:58:36.265Z,706.37
2017-01-12T08:59:36.285Z,707.01
2017-01-12T09:00:36.284Z,707.34
2017-01-12T09:01:36.279Z,708.3
2017-01-12T09:02:36.289Z,709.46
2017-01-12T09:03:36.281Z,711.14
2017-01-12T09:04:36.285Z,714.09
2017-01-12T09:05:36.335Z,716.61
2017-01-12T09:06:36.309Z,718.55
2017-01-12T09:07:36.307Z,720.61
2017-01-12T09:08:37.292Z,721.97
2017-01-12T09:09:36.329Z,725.24
2017-01-12T09:10:36.337Z,728.56
2017-01-12T09:11:36.330Z,732.84
2017-01-12T09:12:36.307Z,737.55
2017-01-12T09:13:36.285Z,741.42
2017-01-12T09:14:37.213Z,744.28
2017-01-12T09:15:36.312Z,745.51
2017-01-12T09:16:36.333Z,746.99
2017-01-12T09:17:36.317Z,748.09
2017-01-12T09:18:36.406Z,748.33
2017-01-12T09:19:38.517Z,748.12
2017-01-12T09:20:36.407Z,748.35
2017-01-12T09:21:36.328Z,748.32
2017-01-12T09:22:36.321Z,748.37
2017-01-12T09:23:36.324Z,749.48
2017-01-12T09:24:36.404Z,750.48
2017-01-12T09:25:36.324Z,749.82
2017-01-12T09:26:37.001Z,751.8
2017-01-12T09:27:36.339Z,751.94
2017-01-12T09:28:36.335Z,752.33
2017-01-12T09:29:37.294Z,753.65
2017-01-12T09:30:36.376Z,755.1
2017-01-12T09:31:36.324Z,755.84
2017-01-12T09:32:36.356Z,755.71
2017-01-12T09:33:36.328Z,753.8
2017-01-12T09:34:36.344Z,750.78
2017-01-12T09:35:36.338Z,747.53
2017-01-12T09:36:36.335Z,744.62
2017-01-12T09:37:37.032Z,743.39
2017-01-12T09:38:37.919Z,743.07
2017-01-12T09:39:36.361Z,742.63
2017-01-12T09:40:36.351Z,741.51
2017-01-12T09:41:36.357Z,739.58
2017-01-12T09:42:36.361Z,736.81
2017-01-12T09:43:36.387Z,733.66
2017-01-12T09:44:36.339Z,730.63
2017-01-12T09:45:36.423Z,728.47
2017-01-12T09:46:36.395Z,729.63
2017-01-12T09:47:36.397Z,730.46
2017-01-12T09:48:36.338Z,732.4
2017-01-12T09:49:36.364Z,733.89
2017-01-12T09:50:36.354Z,735.99
2017-01-12T09:51:36.358Z,738.92
2017-01-12T09:52:36.420Z,739.73
2017-01-12T09:53:36.871Z,740.12
2017-01-12T09:54:36.423Z,741.34
2017-01-12T09:55:36.335Z,741.38
2017-01-12T09:56:36.368Z,740.71
2017-01-12T09:57:36.371Z,739.98
2017-01-12T09:58:36.354Z,741.05
2017-01-12T09:59:36.328Z,742.07
2017-01-12T10:00:36.399Z,745.37
2017-01-12T10:01:36.380Z,750.66
2017-01-12T10:02:36.380Z,753.4
2017-01-12T10:03:36.638Z,756.21
2017-01-12T10:04:36.344Z,758.19
2017-01-12T10:05:36.400Z,760.51
2017-01-12T10:06:36.339Z,762.66
2017-01-12T10:07:36.422Z,762.72
2017-01-12T10:08:36.373Z,762.46
2017-01-12T10:09:36.382Z,762.25
2017-01-12T10:10:36.387Z,761.82
2017-01-12T10:11:36.408Z,763.04
2017-01-12T10:12:36.374Z,764.3
2017-01-12T10:13:36.375Z,766.07
2017-01-12T10:14:36.348Z,767.34
2017-01-12T10:15:37.704Z,767.83
2017-01-12T10:16:36.340Z,767.85
2017-01-12T10:17:36.412Z,768.57
2017-01-12T10:18:36.330Z,768.81
2017-01-12T10:19:36.364Z,768.87
2017-01-12T10:20:36.335Z,768.14
2017-01-12T10:21:36.335Z,767.33
2017-01-12T10:22:36.821Z,766.37
2017-01-12T10:23:36.647Z,765.76
2017-01-12T10:24:36.335Z,765.3
2017-01-12T10:25:36.335Z,765.44
2017-01-12T10:26:36.396Z,765.4
2017-01-12T10:27:36.413Z,765.58
2017-01-12T10:28:36.372Z,766.02
2017-01-12T10:29:36.341Z,766.13
2017-01-12T10:30:36.395Z,766.84
2017-01-12T10:31:36.352Z,767.52
2017-01-12T10:32:36.398Z,768.08
2017-01-12T10:33:36.345Z,770.43
2017-01-12T10:34:36.359Z,772.72
2017-01-12T10:35:36.454Z,774.37
2017-01-12T10:36:36.392Z,775.02
2017-01-12T10:37:36.355Z,775.07
2017-01-12T10:38:36.360Z,774.68
2017-01-12T10:39:37.140Z,773.82
2017-01-12T10:40:36.431Z,773.37
2017-01-12T10:41:36.361Z,772.69
2017-01-12T10:42:36.366Z,770.94
2017-01-12T10:43:36.600Z,770.24
2017-01-12T10:44:37.120Z,768.62
2017-01-12T10:45:37.077Z,766.03
2017-01-12T10:46:36.425Z,762.84
2017-01-12T10:47:36.376Z,760.76
2017-01-12T10:48:36.398Z,758.23
2017-01-12T10:49:36.366Z,756.43
2017-01-12T10:50:36.366Z,754.68
2017-01-12T10:51:36.403Z,752.23
2017-01-12T10:52:36.439Z,750.39
2017-01-12T10:53:36.377Z,748.66
2017-01-12T10:54:36.367Z,747.64
2017-01-12T10:55:36.358Z,747.18
2017-01-12T10:56:36.381Z,746.44
2017-01-12T10:57:36.389Z,745.83
2017-01-12T10:58:36.359Z,745.61
2017-01-12T10:59:36.373Z,745.56
2017-01-12T11:00:36.374Z,746.44
2017-01-12T11:01:36.367Z,746.82
2017-01-12T11:02:36.398Z,747.89
2017-01-12T11:03:36.375Z,749.34
2017-01-12T11:04:36.981Z,751.75
2017-01-12T11:05:36.403Z,753.22
2017-01-12T11:06:36.381Z,755.21
2017-01-12T11:07:36.439Z,757.93
2017-01-12T11:08:36.369Z,760.59
2017-01-12T11:09:36.393Z,762.98
2017-01-12T11:10:36.375Z,765.24
2017-01-12T11:11:36.376Z,766.57
2017-01-12T11:12:36.371Z,769.68
2017-01-12T11:13:36.370Z,770.37
2017-01-12T11:14:36.372Z,773.48
2017-01-12T11:15:36.374Z,774.02
2017-01-12T11:16:36.373Z,774.07
2017-01-12T11:17:37.075Z,775.19
2017-01-12T11:18:37.067Z,774.49
2017-01-12T11:19:36.393Z,774.61
2017-01-12T11:20:36.384Z,774.31
2017-01-12T11:21:36.369Z,774.5
2017-01-12T11:22:36.395Z,774.31
2017-01-12T11:23:36.375Z,774.59
2017-01-12T11:24:36.380Z,774.52
2017-01-12T11:25:36.382Z,774.42
2017-01-12T11:26:36.388Z,774.52
2017-01-12T11:27:36.372Z,774.39
2017-01-12T11:28:36.374Z,774.03
2017-01-12T11:29:36.382Z,772.46
2017-01-12T11:30:36.376Z,771.57
2017-01-12T11:31:36.367Z,770.04
2017-01-12T11:32:36.373Z,768.93
2017-01-12T11:33:36.381Z,766.82
2017-01-12T11:34:36.376Z,766.41
2017-01-12T11:35:36.383Z,765.91
2017-01-12T11:36:36.376Z,765.04
2017-01-12T11:37:36.394Z,764.54
2017-01-12T11:38:36.392Z,764.73
2017-01-12T11:39:36.394Z,764.37
2017-01-12T11:40:36.405Z,764.72
2017-01-12T11:41:36.381Z,765.54
2017-01-12T11:42:36.374Z,765.46
2017-01-12T11:43:36.408Z,765.98
2017-01-12T11:44:36.387Z,767.68
2017-01-12T11:45:36.398Z,767.54
2017-01-12T11:46:36.391Z,768.85
2017-01-12T11:47:36.393Z,769.72
2017-01-12T11:48:36.414Z,771.9
2017-01-12T11:49:36.403Z,774.9
2017-01-12T11:50:36.409Z,778.25
2017-01-12T11:51:36.392Z,781.23
2017-01-12T11:52:36.393Z,784.25
2017-01-12T11:53:36.390Z,787.71
2017-01-12T11:54:36.401Z,790.74
2017-01-12T11:55:37.746Z,794.28
2017-01-12T11:56:36.399Z,796.87
2017-01-12T11:57:36.407Z,798.32
2017-01-12T11:58:36.401Z,799.22
2017-01-12T11:59:36.405Z,799.42
2017-01-12T12:00:36.403Z,799.56
2017-01-12T12:01:36.396Z,799.55
2017-01-12T12:02:36.408Z,799.82
2017-01-12T12:03:36.404Z,800.74
2017-01-12T12:04:36.406Z,802.02
2017-01-12T12:05:36.392Z,802.51
2017-01-12T12:06:36.411Z,801.67
2017-01-12T12:07:36.405Z,800.85
2017-01-12T12:08:36.410Z,800.17
2017-01-12T12:09:36.405Z,798.16
2017-01-12T12:10:36.411Z,796.08
2017-01-12T12:11:36.413Z,795.75
2017-01-12T12:12:36.407Z,794.98
2017-01-12T12:13:36.416Z,794.45
2017-01-12T12:14:36.407Z,793.96
2017-01-12T12:15:36.417Z,793.82
2017-01-12T12:16:36.395Z,794.64
2017-01-12T12:17:36.403Z,796.54
2017-01-12T12:18:36.421Z,799.72
2017-01-12T12:19:36.410Z,801.33
2017-01-12T12:20:36.418Z,803.1
2017-01-12T12:21:36.410Z,804.32
2017-01-12T12:22:36.419Z,803.63
2017-01-12T12:23:36.431Z,803.3
2017-01-12T12:24:36.416Z,803.04
2017-01-12T12:25:36.413Z,803.35
2017-01-12T12:26:36.422Z,804.57
2017-01-12T12:27:36.408Z,805.04
2017-01-12T12:28:36.442Z,805.09
2017-01-12T12:29:36.421Z,807.29
2017-01-12T12:30:36.420Z,808.39